Time;durP1;ratioP1;P1;durP2;ratioP2;P2;SDS_P1;SDS_P2;PMS_P1;PMS_P2;Temp;Humidity;BMP_temperature;BMP_pressure;BME280_temperature;BME280_humidity;BME280_pressure;Samples;Min_cycle;Max_cycle;Signal;HPM_P1;HPM_P2
2022/03/14 00:01:37;;;;;;;39.60;21.12;;;;;;;1.03;64.15;102150.25;1641122;87;25893;-74
2022/03/14 00:04:04;;;;;;;41.65;23.10;;;;;;;0.99;64.25;102150.05;1640786;87;27468;-74
2022/03/14 00:06:32;;;;;;;41.55;22.62;;;;;;;0.90;64.40;102154.52;1640931;87;25987;-75
2022/03/14 00:08:58;;;;;;;54.25;29.42;;;;;;;0.90;64.45;102154.52;1641185;87;25867;-75
2022/03/14 00:11:26;;;;;;;59.93;31.97;;;;;;;0.92;64.39;102153.14;1641430;87;25908;-74
2022/03/14 00:13:55;;;;;;;64.62;32.90;;;;;;;0.91;64.33;102148.78;1640928;87;25865;-75
2022/03/14 00:16:31;;;;;;;79.47;41.60;;;;;;;0.89;64.44;102148.88;1639861;87;27519;-74
2022/03/14 00:18:58;;;;;;;82.27;45.73;;;;;;;0.87;64.42;102159.98;1627410;87;25861;-75
2022/03/14 00:21:26;;;;;;;71.67;37.48;;;;;;;0.86;64.66;102156.95;1666064;85;25767;-75
2022/03/14 00:23:55;;;;;;;52.50;29.90;;;;;;;0.86;64.71;102156.09;1664824;85;25819;-75
2022/03/14 00:26:22;;;;;;;51.40;28.38;;;;;;;0.78;64.80;102148.17;1625242;87;26619;-75
2022/03/14 00:28:50;;;;;;;50.35;26.73;;;;;;;0.74;64.89;102150.61;1603577;87;28302;-75
2022/03/14 00:31:18;;;;;;;46.90;25.50;;;;;;;0.75;64.86;102149.65;1650990;86;25821;-75
2022/03/14 00:33:44;;;;;;;46.75;25.10;;;;;;;0.75;64.93;102154.92;1649752;85;25815;-75
2022/03/14 00:36:10;;;;;;;48.45;26.15;;;;;;;0.77;65.03;102153.52;1653086;85;26493;-75
2022/03/14 00:38:38;;;;;;;48.60;26.60;;;;;;;0.76;65.13;102155.32;1650640;86;25856;-74
2022/03/14 00:41:07;;;;;;;45.10;25.68;;;;;;;0.73;65.10;102151.53;1651459;86;27487;-74
2022/03/14 00:43:34;;;;;;;42.10;24.20;;;;;;;0.68;65.38;102150.92;1648041;86;26013;-73
2022/03/14 00:46:02;;;;;;;40.30;24.40;;;;;;;0.61;65.49;102148.73;1627334;87;25895;-73
2022/03/14 00:48:28;;;;;;;43.23;24.65;;;;;;;0.57;65.54;102148.52;1624194;87;25896;-74
2022/03/14 00:50:55;;;;;;;48.68;24.90;;;;;;;0.55;65.71;102151.25;1628545;87;25757;-73
2022/03/14 00:53:21;;;;;;;49.48;25.90;;;;;;;0.52;65.86;102158.45;1629422;87;27465;-73
2022/03/14 00:55:47;;;;;;;56.58;29.70;;;;;;;0.46;65.75;102151.75;1627417;87;25913;-74
2022/03/14 00:58:14;;;;;;;56.15;27.37;;;;;;;0.51;65.97;102154.14;1628249;87;25857;-75
2022/03/14 01:00:41;;;;;;;53.33;26.60;;;;;;;0.51;65.96;102153.64;1629480;87;26181;-73
2022/03/14 01:03:08;;;;;;;53.65;27.50;;;;;;;0.49;65.92;102156.84;1623613;87;25979;-75
2022/03/14 01:05:34;;;;;;;53.25;26.55;;;;;;;0.48;66.16;102157.79;1628743;87;27478;-74
2022/03/14 01:08:03;;;;;;;50.75;26.45;;;;;;;0.45;65.99;102161.07;1628722;87;25756;-73
2022/03/14 01:10:30;;;;;;;54.77;26.25;;;;;;;0.44;66.07;102154.08;1627173;87;26028;-74
2022/03/14 01:12:57;;;;;;;47.67;25.92;;;;;;;0.45;66.10;102161.07;1625742;87;25926;-75
2022/03/14 01:15:23;;;;;;;49.60;26.57;;;;;;;0.45;66.12;102155.80;1624163;87;26036;-74
2022/03/14 01:17:49;;;;;;;53.73;26.90;;;;;;;0.45;66.32;102161.90;1626958;87;27556;-74
2022/03/14 01:20:19;;;;;;;50.58;25.97;;;;;;;0.41;66.31;102158.19;1628523;87;26521;-73
2022/03/14 01:22:45;;;;;;;47.58;26.60;;;;;;;0.39;66.41;102164.02;1629297;87;25344;-75
2022/03/14 01:25:12;;;;;;;49.50;26.45;;;;;;;0.40;66.42;102164.42;1623452;87;26503;-77
2022/03/14 01:27:38;;;;;;;48.02;24.82;;;;;;;0.39;66.35;102160.92;1628523;87;26592;-75
2022/03/14 01:30:06;;;;;;;46.95;27.20;;;;;;;0.34;66.38;102166.08;1629220;87;27472;-75
2022/03/14 01:32:34;;;;;;;51.28;25.80;;;;;;;0.33;66.35;102156.45;1644984;86;25934;-73
2022/03/14 01:35:00;;;;;;;50.55;25.50;;;;;;;0.31;66.42;102153.91;1640907;87;25843;-74
2022/03/14 01:37:26;;;;;;;48.87;26.37;;;;;;;0.28;66.46;102158.51;1641319;87;26531;-74
2022/03/14 01:39:52;;;;;;;48.15;25.20;;;;;;;0.28;66.87;102153.23;1637892;87;26486;-73
2022/03/14 01:42:19;;;;;;;49.73;24.95;;;;;;;0.26;66.86;102155.07;1640706;87;26926;-75
2022/03/14 01:44:47;;;;;;;47.13;25.82;;;;;;;0.24;66.76;102156.94;1640787;87;26510;-75
2022/03/14 01:47:14;;;;;;;50.85;27.30;;;;;;;0.20;66.80;102147.50;1625955;87;25876;-76
2022/03/14 01:49:45;;;;;;;51.13;25.95;;;;;;;0.17;66.94;102159.05;1665425;85;25720;-75
2022/03/14 01:52:13;;;;;;;60.08;28.47;;;;;;;0.18;67.00;102155.95;1646878;86;26526;-74
2022/03/14 01:54:42;;;;;;;52.20;27.70;;;;;;;0.18;67.11;102155.95;1651834;85;28396;-73
2022/03/14 01:57:08;;;;;;;52.38;27.05;;;;;;;0.14;66.94;102163.65;1652600;86;26016;-74
2022/03/14 01:59:36;;;;;;;56.35;28.15;;;;;;;0.12;66.96;102157.16;1650713;86;25801;-75
2022/03/14 02:02:11;;;;;;;52.78;27.40;;;;;;;0.12;67.15;102156.30;1650256;86;26119;-74
2022/03/14 02:04:39;;;;;;;46.77;25.97;;;;;;;0.11;67.10;102154.12;1650813;86;25892;-74
2022/03/14 02:07:06;;;;;;;54.73;27.30;;;;;;;0.11;67.15;102163.83;1650890;86;27668;-74
2022/03/14 02:09:32;;;;;;;49.73;25.77;;;;;;;0.08;67.23;102162.20;1646466;86;25814;-74
2022/03/14 02:12:04;;;;;;;47.90;26.40;;;;;;;0.08;67.37;102162.66;1651317;86;25868;-74
2022/03/14 02:14:31;;;;;;;57.33;25.43;;;;;;;0.08;67.13;102162.20;1650349;86;25790;-74
2022/03/14 02:16:57;;;;;;;50.58;26.73;;;;;;;0.09;67.24;102161.26;1652009;85;25811;-74
2022/03/14 02:19:23;;;;;;;53.63;27.15;;;;;;;0.10;67.30;102162.97;1652976;86;28307;-76
2022/03/14 02:21:49;;;;;;;50.85;26.37;;;;;;;0.08;67.25;102161.34;1650036;85;26124;-75
2022/03/14 02:24:16;;;;;;;49.73;25.57;;;;;;;0.06;67.21;102168.02;1651405;86;26473;-77
2022/03/14 02:26:43;;;;;;;46.80;25.05;;;;;;;0.06;67.34;102170.66;1651915;86;25792;-75
2022/03/14 02:29:14;;;;;;;53.42;25.60;;;;;;;0.04;67.27;102172.98;1649629;86;26084;-73
2022/03/14 02:31:42;;;;;;;50.38;25.08;;;;;;;0.01;67.33;102172.67;1651644;86;27471;-74
2022/03/14 02:34:08;;;;;;;49.95;25.27;;;;;;;-0.02;67.38;102175.00;1652090;86;25847;-75
2022/03/14 02:36:39;;;;;;;48.90;24.60;;;;;;;-0.06;67.37;102174.78;1650593;86;25766;-75
2022/03/14 02:39:06;;;;;;;;;;;;;;;-0.07;67.34;102173.55;1652978;86;25890;-73
2022/03/14 02:41:32;;;;;;;45.78;25.10;;;;;;;-0.13;67.52;102173.39;1646203;86;25826;-74
2022/03/14 02:44:01;;;;;;;49.53;25.23;;;;;;;-0.19;67.62;102173.72;1652037;86;26993;-75
2022/03/14 02:46:29;;;;;;;48.33;26.20;;;;;;;-0.22;67.80;102172.58;1651067;86;25826;-74
2022/03/14 02:48:55;;;;;;;44.73;24.98;;;;;;;-0.26;68.07;102175.44;1647567;86;26197;-75
2022/03/14 02:51:22;;;;;;;44.45;23.42;;;;;;;-0.25;68.14;102175.81;1651236;86;25830;-74
2022/03/14 02:53:48;;;;;;;45.90;24.27;;;;;;;-0.26;68.15;102177.62;1650069;86;26657;-74
2022/03/14 02:56:14;;;;;;;44.40;23.35;;;;;;;-0.29;68.04;102183.48;1652537;85;27530;-74
2022/03/14 02:58:41;;;;;;;51.73;25.50;;;;;;;-0.31;68.26;102173.50;1651088;86;25905;-74
2022/03/14 03:01:08;;;;;;;47.75;25.45;;;;;;;-0.33;68.22;102178.00;1650388;85;25861;-73
2022/03/14 03:03:34;;;;;;;45.70;24.70;;;;;;;-0.38;68.49;102177.38;1646322;86;25828;-74
2022/03/14 03:06:03;;;;;;;51.05;26.77;;;;;;;-0.42;68.75;102179.31;1650163;86;25950;-75
2022/03/14 03:08:29;;;;;;;45.17;24.50;;;;;;;-0.47;69.33;102183.13;1652476;86;27469;-78
2022/03/14 03:10:59;;;;;;;46.25;23.75;;;;;;;-0.49;69.14;102179.72;1649993;86;25855;-75
2022/03/14 03:13:27;;;;;;;45.95;25.23;;;;;;;-0.52;69.15;102180.72;1650937;85;32603;-74
2022/03/14 03:15:54;;;;;;;47.03;24.20;;;;;;;-0.52;69.28;102185.13;1645973;86;26457;-75
2022/03/14 03:18:21;;;;;;;41.23;23.80;;;;;;;-0.52;69.34;102182.05;1650946;86;26366;-74
2022/03/14 03:20:47;;;;;;;45.95;23.62;;;;;;;-0.52;69.46;102193.88;1652117;86;28302;-75
2022/03/14 03:23:14;;;;;;;43.20;23.55;;;;;;;-0.53;69.31;102192.63;1649737;86;26461;-74
2022/03/14 03:25:40;;;;;;;46.15;24.20;;;;;;;-0.55;69.35;102194.48;1650499;86;25816;-74
2022/03/14 03:28:07;;;;;;;46.05;23.52;;;;;;;-0.55;69.70;102194.02;1650151;86;26300;-74
2022/03/14 03:30:34;;;;;;;46.50;23.15;;;;;;;-0.66;69.89;102202.91;1652760;85;26214;-74
2022/03/14 03:33:00;;;;;;;44.40;22.77;;;;;;;-0.66;69.89;102202.91;1652078;86;28243;-74
2022/03/14 03:35:27;;;;;;;44.73;24.87;;;;;;;-0.68;70.02;102198.69;1650635;85;25970;-75
2022/03/14 03:37:53;;;;;;;51.42;24.55;;;;;;;-0.69;70.12;102201.77;1646806;86;25339;-74
2022/03/14 03:40:19;;;;;;;44.10;22.70;;;;;;;-0.68;70.18;102203.95;1651102;86;25844;-76
2022/03/14 03:42:45;;;;;;;44.42;24.27;;;;;;;-0.72;70.17;102212.43;1650113;86;25873;-75
2022/03/14 03:45:13;;;;;;;47.78;25.10;;;;;;;-0.76;70.36;102209.57;1652145;86;27485;-75
2022/03/14 03:47:42;;;;;;;42.48;23.00;;;;;;;-0.78;70.55;102211.42;1651976;86;25884;-74
2022/03/14 03:50:09;;;;;;;44.45;22.98;;;;;;;-0.81;70.58;102208.47;1650423;85;26492;-73
2022/03/14 03:52:36;;;;;;;45.43;24.82;;;;;;;-0.79;70.62;102212.34;1652561;86;26584;-74
2022/03/14 03:55:04;;;;;;;47.53;23.62;;;;;;;-0.78;70.67;102208.80;1649834;86;25848;-75
2022/03/14 03:57:30;;;;;;;41.85;23.47;;;;;;;-0.79;70.73;102209.70;1665156;85;27502;-74
2022/03/14 03:59:56;;;;;;;47.88;23.25;;;;;;;-0.80;70.58;102214.59;1627131;87;25797;-76
2022/03/14 04:02:23;;;;;;;42.10;22.13;;;;;;;-0.82;70.60;102214.68;1650931;86;26587;-76
2022/03/14 04:04:51;;;;;;;42.58;22.87;;;;;;;-0.82;70.79;102216.00;1649623;85;25861;-74
2022/03/14 04:07:23;;;;;;;41.73;23.30;;;;;;;-0.82;70.79;102212.05;1651400;86;25833;-75
2022/03/14 04:09:55;;;;;;;41.05;23.52;;;;;;;-0.81;70.78;102216.82;1649327;86;27519;-74
2022/03/14 04:12:19;;;;;;;45.60;24.13;;;;;;;-0.81;70.91;102216.82;1648513;86;25958;-74
2022/03/14 04:14:47;;;;;;;50.33;23.92;;;;;;;-0.85;70.81;102226.66;1648802;86;25812;-74
2022/03/14 04:17:13;;;;;;;41.20;23.45;;;;;;;-0.93;70.84;102211.72;1641122;87;26441;-73
2022/03/14 04:19:41;;;;;;;44.20;23.55;;;;;;;-0.81;70.76;102229.98;1640885;87;25808;-74
2022/03/14 04:22:08;;;;;;;37.05;20.60;;;;;;;-0.81;70.61;102230.84;1640868;87;27607;-75
2022/03/14 04:24:36;;;;;;;43.95;24.40;;;;;;;-0.84;70.68;102222.25;1625312;87;25609;-74
2022/03/14 04:27:03;;;;;;;40.50;21.90;;;;;;;-0.86;70.73;102222.80;1627768;87;25778;-73
2022/03/14 04:29:30;;;;;;;44.05;22.62;;;;;;;-0.87;70.80;102227.19;1650948;86;25857;-75
2022/03/14 04:31:56;;;;;;;46.85;24.43;;;;;;;-0.89;70.94;102227.73;1653030;86;25339;-75
2022/03/14 04:34:23;;;;;;;42.50;24.52;;;;;;;-0.90;71.08;102226.02;1651403;86;27536;-74
2022/03/14 04:36:50;;;;;;;57.80;30.15;;;;;;;-0.91;70.91;102232.67;1652256;86;25601;-74
2022/03/14 04:39:17;;;;;;;48.52;27.48;;;;;;;-0.92;71.14;102233.61;1650580;86;26010;-74
2022/03/14 04:41:44;;;;;;;48.83;27.20;;;;;;;-0.94;70.86;102241.55;1650951;85;25903;-74
2022/03/14 04:44:10;;;;;;;44.83;24.07;;;;;;;-0.92;71.07;102244.14;1652481;86;26556;-73
2022/03/14 04:46:37;;;;;;;43.45;23.60;;;;;;;-0.92;71.01;102248.91;1651089;86;27479;-74
2022/03/14 04:49:04;;;;;;;44.38;23.87;;;;;;;-0.96;71.06;102246.49;1650199;85;26092;-75
2022/03/14 04:51:32;;;;;;;49.30;26.95;;;;;;;-1.00;71.29;102254.14;1652075;86;26595;-75
2022/03/14 04:53:59;;;;;;;50.10;26.60;;;;;;;-1.04;71.16;102253.45;1651250;86;26622;-75
2022/03/14 04:56:25;;;;;;;40.60;24.82;;;;;;;-1.04;71.32;102256.08;1650610;86;25964;-74
2022/03/14 04:58:52;;;;;;;52.62;30.88;;;;;;;-1.03;71.24;102257.80;1652490;86;28037;-74
2022/03/14 05:01:23;;;;;;;53.55;29.42;;;;;;;-1.04;71.35;102255.22;1650685;86;26697;-74
2022/03/14 05:03:46;;;;;;;48.30;26.20;;;;;;;-1.04;71.28;102250.82;1649612;86;25956;-74
2022/03/14 05:06:13;;;;;;;56.65;29.72;;;;;;;-0.99;71.61;102254.55;1651911;86;25902;-74
2022/03/14 05:08:39;;;;;;;53.35;28.50;;;;;;;-0.99;71.17;102251.92;1650669;86;25921;-74
2022/03/14 05:11:06;;;;;;;52.62;29.18;;;;;;;-1.02;71.03;102250.28;1650033;85;27518;-74
2022/03/14 05:13:32;;;;;;;66.87;36.73;;;;;;;-1.05;71.11;102248.27;1627971;86;27588;-75
2022/03/14 05:15:58;;;;;;;53.28;29.10;;;;;;;-1.06;71.22;102258.38;1651623;86;25979;-73
2022/03/14 05:18:25;;;;;;;50.95;26.12;;;;;;;-1.06;71.34;102253.13;1651052;86;26587;-74
2022/03/14 05:20:51;;;;;;;49.90;29.98;;;;;;;-1.02;71.35;102256.00;1651813;86;26158;-74
2022/03/14 05:23:17;;;;;;;57.67;30.20;;;;;;;-1.04;71.23;102255.22;1650527;86;28271;-74
2022/03/14 05:25:44;;;;;;;48.00;27.17;;;;;;;-1.06;71.35;102257.93;1650267;86;25975;-74
2022/03/14 05:28:10;;;;;;;45.92;26.70;;;;;;;-1.06;71.32;102260.56;1651040;86;25780;-75
2022/03/14 05:30:36;;;;;;;45.08;25.48;;;;;;;-1.04;71.35;102267.05;1651432;86;25902;-75
2022/03/14 05:33:02;;;;;;;42.90;25.35;;;;;;;-1.05;71.41;102271.45;1649652;86;25826;-74
2022/03/14 05:35:29;;;;;;;45.10;24.45;;;;;;;-1.06;71.37;102272.39;1652426;86;27563;-74
2022/03/14 05:37:55;;;;;;;47.45;27.45;;;;;;;-1.04;71.51;102276.25;1652425;85;26520;-74
2022/03/14 05:40:21;;;;;;;45.05;27.32;;;;;;;-1.05;71.59;102279.34;1652987;85;25894;-74
2022/03/14 05:42:49;;;;;;;46.77;26.45;;;;;;;-1.02;71.74;102280.52;1620090;87;25908;-74
2022/03/14 05:45:18;;;;;;;46.10;27.27;;;;;;;-1.02;71.66;102272.63;1621370;87;26542;-74
2022/03/14 05:47:45;;;;;;;45.60;25.57;;;;;;;-0.99;71.77;102279.53;1606955;88;27471;-75
2022/03/14 05:50:12;;;;;;;52.75;25.72;;;;;;;-1.01;71.82;102271.73;1605207;88;25909;-75
2022/03/14 05:52:39;;;;;;;52.23;26.95;;;;;;;-0.99;71.88;102278.22;1615331;88;25870;-74
2022/03/14 05:55:08;;;;;;;56.65;28.38;;;;;;;-0.99;72.05;102276.91;1650325;86;25807;-73
2022/03/14 05:57:35;;;;;;;42.33;24.35;;;;;;;-0.95;72.22;102277.14;1645056;86;25852;-76
2022/03/14 06:00:05;;;;;;;46.83;24.40;;;;;;;-0.92;72.33;102277.84;1649469;86;27543;-76
2022/03/14 06:02:35;;;;;;;39.90;23.60;;;;;;;-0.89;72.16;102280.34;1625617;87;25882;-76
2022/03/14 06:05:01;;;;;;;46.02;24.23;;;;;;;-0.83;72.17;102289.70;1624173;87;26003;-75
2022/03/14 06:07:27;;;;;;;42.65;22.30;;;;;;;-0.77;72.20;102289.89;1630860;86;25765;-74
2022/03/14 06:09:54;;;;;;;47.78;25.95;;;;;;;-0.72;72.16;102282.61;1647073;85;26610;-74
2022/03/14 06:12:29;;;;;;;43.15;24.45;;;;;;;-0.69;72.39;102289.91;1659196;85;27489;-74
2022/03/14 06:15:00;;;;;;;46.70;27.65;;;;;;;-0.64;72.51;102286.58;1627593;86;25735;-74
2022/03/14 06:17:27;;;;;;;35.05;20.72;;;;;;;-0.59;73.09;102285.05;1635819;86;25949;-75
2022/03/14 06:19:53;;;;;;;43.13;23.57;;;;;;;-0.54;72.79;102292.27;1623908;87;26656;-75
2022/03/14 06:22:22;;;;;;;41.63;20.05;;;;;;;-0.51;73.20;102286.38;1627283;86;25741;-74
2022/03/14 06:24:50;;;;;;;41.25;19.67;;;;;;;-0.43;72.93;102291.28;1651905;85;27175;-74
2022/03/14 06:27:20;;;;;;;38.25;20.60;;;;;;;-0.40;72.75;102294.60;1649707;85;25931;-74
2022/03/14 06:29:48;;;;;;;44.25;23.40;;;;;;;-0.34;72.80;102302.19;1653228;85;25851;-74
2022/03/14 06:32:15;;;;;;;40.90;22.10;;;;;;;-0.26;73.15;102296.11;1617841;88;26060;-76
2022/03/14 06:34:42;;;;;;;40.40;21.93;;;;;;;-0.19;72.80;102298.80;1583264;88;26520;-74
2022/03/14 06:37:10;;;;;;;43.83;22.07;;;;;;;-0.11;72.65;102300.57;1648395;86;27490;-76
2022/03/14 06:39:37;;;;;;;98.47;42.25;;;;;;;-0.03;72.60;102300.20;1662457;85;25887;-75
2022/03/14 06:42:08;;;;;;;46.80;24.35;;;;;;;0.02;72.85;102302.16;1664353;85;26591;-75
2022/03/14 06:44:39;;;;;;;49.33;25.25;;;;;;;0.08;72.47;102297.88;1615127;88;26013;-75
2022/03/14 06:47:09;;;;;;;41.30;23.70;;;;;;;0.16;72.44;102304.92;1604385;88;25999;-74
2022/03/14 06:49:37;;;;;;;41.60;22.82;;;;;;;0.22;72.38;102296.69;1645005;86;27476;-74
2022/03/14 06:52:05;;;;;;;43.75;26.90;;;;;;;0.28;72.27;102294.22;1640992;87;25968;-74
2022/03/14 06:54:31;;;;;;;43.98;22.93;;;;;;;0.36;72.33;102297.30;1640959;87;25920;-73
2022/03/14 06:56:58;;;;;;;42.98;23.87;;;;;;;0.42;72.21;102296.98;1641273;87;25840;-74
2022/03/14 06:59:24;;;;;;;41.68;22.10;;;;;;;0.49;72.02;102294.41;1641068;87;25877;-75
2022/03/14 07:01:50;;;;;;;43.05;23.65;;;;;;;0.57;72.04;102296.17;1640840;85;27469;-74
2022/03/14 07:04:17;;;;;;;37.23;21.62;;;;;;;0.62;71.71;102295.47;1640949;87;25780;-74
2022/03/14 07:06:44;;;;;;;37.50;23.60;;;;;;;0.67;71.70;102292.95;1641269;87;25798;-75
2022/03/14 07:09:10;;;;;;;35.60;21.57;;;;;;;0.74;71.66;102292.16;1640994;87;26598;-74
2022/03/14 07:11:36;;;;;;;38.67;21.57;;;;;;;0.81;71.27;102301.45;1641250;87;26591;-74
2022/03/14 07:14:03;;;;;;;40.33;22.95;;;;;;;0.86;71.33;102305.13;1645043;85;28087;-75
2022/03/14 07:16:29;;;;;;;37.95;21.45;;;;;;;0.91;71.12;102300.02;1640978;87;26177;-76
2022/03/14 07:18:56;;;;;;;38.58;21.82;;;;;;;0.97;70.99;102302.31;1637986;87;25845;-74
2022/03/14 07:21:28;;;;;;;38.53;21.12;;;;;;;1.02;70.80;102298.96;1641325;85;26494;-75
2022/03/14 07:23:52;;;;;;;42.13;23.43;;;;;;;1.10;70.86;102299.38;1640830;86;25767;-74
2022/03/14 07:26:18;;;;;;;38.58;22.13;;;;;;;1.17;70.75;102301.21;1643273;85;27522;-74
2022/03/14 07:28:47;;;;;;;34.45;20.57;;;;;;;1.23;70.48;102299.09;1641425;86;25825;-74
2022/03/14 07:31:18;;;;;;;33.53;20.57;;;;;;;1.31;70.67;102302.14;1641121;87;26235;-74
2022/03/14 07:33:44;;;;;;;39.58;22.82;;;;;;;1.38;70.09;102296.91;1641512;85;26224;-74
2022/03/14 07:36:11;;;;;;;42.93;22.62;;;;;;;1.47;70.24;102299.50;1651454;85;26351;-74
2022/03/14 07:38:38;;;;;;;41.98;22.15;;;;;;;1.55;70.31;102292.84;1641628;85;28873;-74
2022/03/14 07:41:05;;;;;;;39.88;22.22;;;;;;;1.64;69.81;102291.92;1637809;87;25852;-74
2022/03/14 07:43:31;;;;;;;40.08;22.80;;;;;;;1.73;70.06;102291.39;1650192;86;25866;-74
2022/03/14 07:45:58;;;;;;;40.75;22.62;;;;;;;1.80;69.44;102300.64;1653031;86;25867;-74
2022/03/14 07:48:24;;;;;;;38.95;21.17;;;;;;;1.87;69.62;102299.36;1655491;85;26587;-75
2022/03/14 07:50:52;;;;;;;41.50;21.27;;;;;;;1.96;69.33;102306.29;1649090;85;27500;-74
2022/03/14 07:53:18;;;;;;;39.78;23.07;;;;;;;2.03;68.84;102298.36;1622995;87;25875;-74
2022/03/14 07:55:44;;;;;;;41.02;22.17;;;;;;;2.10;68.75;102304.13;1652759;85;25824;-75
2022/03/14 07:58:11;;;;;;;44.33;21.85;;;;;;;2.17;68.27;102304.16;1660116;85;26659;-74
2022/03/14 08:00:37;;;;;;;35.15;20.75;;;;;;;2.24;68.56;102307.68;1624695;87;25846;-75
2022/03/14 08:03:03;;;;;;;32.20;19.32;;;;;;;2.31;68.52;102302.38;1649084;85;27468;-75
2022/03/14 08:05:30;;;;;;;41.28;23.02;;;;;;;2.39;68.41;102305.05;1632665;86;25902;-75
2022/03/14 08:07:58;;;;;;;41.10;21.20;;;;;;;2.45;68.07;102303.34;1649407;85;25499;-75
2022/03/14 08:10:26;;;;;;;43.30;23.12;;;;;;;2.55;68.64;102305.80;1649742;85;26900;-75
2022/03/14 08:12:55;;;;;;;35.73;21.48;;;;;;;2.66;68.25;102305.99;1622648;87;25980;-75
2022/03/14 08:15:31;;;;;;;43.75;22.95;;;;;;;2.75;67.90;102307.61;1660687;85;28672;-75
2022/03/14 08:18:05;;;;;;;38.85;22.13;;;;;;;2.79;67.16;102309.59;1633131;87;25505;-74
2022/03/14 08:20:32;;;;;;;39.98;22.70;;;;;;;2.84;66.50;102304.87;1623755;87;25997;-75
2022/03/14 08:23:02;;;;;;;35.92;20.85;;;;;;;2.86;66.28;102304.30;1645108;85;25773;-74
2022/03/14 08:25:30;;;;;;;36.93;21.87;;;;;;;2.92;66.73;102303.91;1650655;85;25927;-74
2022/03/14 08:27:57;;;;;;;39.42;22.80;;;;;;;3.01;66.47;102311.28;1651956;85;27471;-75
2022/03/14 08:30:24;;;;;;;50.12;27.82;;;;;;;3.08;66.41;102304.63;1658383;85;25854;-75
2022/03/14 08:32:52;;;;;;;39.25;24.45;;;;;;;3.17;66.17;102311.13;1656415;85;25827;-77
2022/03/14 08:35:20;;;;;;;43.98;23.50;;;;;;;3.27;65.74;102309.16;1645590;85;26576;-73
2022/03/14 08:37:50;;;;;;;38.75;23.75;;;;;;;3.34;66.03;102303.81;1647554;85;26551;-74
2022/03/14 08:40:21;;;;;;;40.33;22.17;;;;;;;3.51;65.03;102304.04;1647540;85;27475;-75
2022/03/14 08:42:49;;;;;;;38.53;23.42;;;;;;;3.51;65.03;102304.04;1645915;85;25834;-74
2022/03/14 08:45:16;;;;;;;46.10;25.92;;;;;;;3.58;64.91;102306.67;1653823;85;25852;-77
2022/03/14 08:47:42;;;;;;;43.20;24.05;;;;;;;3.64;64.21;102294.34;1649438;85;26560;-74
2022/03/14 08:50:12;;;;;;;43.48;24.18;;;;;;;3.71;64.52;102293.00;1645176;85;25757;-77
2022/03/14 08:52:39;;;;;;;45.20;23.35;;;;;;;3.79;64.44;102296.84;1642353;86;27079;-75
2022/03/14 08:55:06;;;;;;;39.63;22.45;;;;;;;3.89;63.56;102292.61;1653095;85;25967;-73
2022/03/14 08:57:33;;;;;;;41.55;22.52;;;;;;;3.96;64.04;102292.23;1648018;85;25809;-75
2022/03/14 09:00:00;;;;;;;60.40;31.80;;;;;;;4.05;64.46;102283.63;1649193;85;25787;-75
2022/03/14 09:02:26;;;;;;;45.98;26.20;;;;;;;4.12;64.16;102280.47;1650826;86;26011;-74
2022/03/14 09:04:53;;;;;;;46.92;25.75;;;;;;;4.19;63.20;102282.23;1656738;85;28313;-74
2022/03/14 09:07:28;;;;;;;43.58;26.33;;;;;;;4.22;63.23;102290.81;1659971;85;25833;-74
2022/03/14 09:09:55;;;;;;;41.33;24.40;;;;;;;4.28;62.92;102287.73;1617221;87;25862;-74
2022/03/14 09:12:21;;;;;;;46.05;24.23;;;;;;;4.34;63.00;102279.86;1627033;86;26060;-75
2022/03/14 09:14:49;;;;;;;45.83;26.15;;;;;;;4.43;63.31;102273.89;1648544;85;25950;-75
2022/03/14 09:17:16;;;;;;;47.53;27.45;;;;;;;4.51;62.05;102276.88;1648329;85;27653;-73
2022/03/14 09:19:42;;;;;;;46.33;26.82;;;;;;;4.58;62.42;102275.47;1644569;85;26049;-73
2022/03/14 09:22:11;;;;;;;75.03;38.28;;;;;;;4.65;61.15;102272.30;1649226;85;25826;-75
2022/03/14 09:24:38;;;;;;;52.55;31.65;;;;;;;4.69;61.72;102272.92;1642355;85;25856;-74
2022/03/14 09:27:06;;;;;;;49.15;29.37;;;;;;;4.75;61.92;102269.83;1616471;87;26448;-76
2022/03/14 09:29:32;;;;;;;52.48;28.75;;;;;;;4.82;62.22;102271.56;1654929;85;28106;-75
2022/03/14 09:31:59;;;;;;;62.45;33.35;;;;;;;4.91;61.65;102268.27;1622968;87;26055;-77
2022/03/14 09:34:26;;;;;;;46.13;28.98;;;;;;;4.97;61.20;102270.00;1650876;85;26066;-76
2022/03/14 09:36:54;;;;;;;188.93;76.65;;;;;;;5.02;61.29;102263.04;1649204;85;25935;-77
2022/03/14 09:39:21;;;;;;;65.85;35.20;;;;;;;5.09;61.01;102257.66;1640270;85;25922;-77
2022/03/14 09:41:50;;;;;;;45.52;26.02;;;;;;;5.15;61.17;102268.69;1654588;85;27476;-74
2022/03/14 09:44:20;;;;;;;59.27;36.85;;;;;;;5.22;60.44;102258.44;1651276;85;26213;-74
2022/03/14 09:46:48;;;;;;;46.45;27.75;;;;;;;5.30;60.90;102272.03;1652977;85;26603;-73
2022/03/14 09:49:16;;;;;;;41.95;25.45;;;;;;;5.39;60.20;102259.38;1651504;85;26545;-74
2022/03/14 09:51:44;;;;;;;45.67;25.30;;;;;;;5.48;60.84;102259.56;1652372;85;26003;-77
2022/03/14 09:54:12;;;;;;;43.15;26.05;;;;;;;5.61;60.11;102265.28;1657929;85;27485;-74
2022/03/14 09:56:43;;;;;;;49.98;25.25;;;;;;;5.66;60.39;102260.48;1616874;87;26619;-75
2022/03/14 09:59:12;;;;;;;44.33;26.00;;;;;;;5.75;59.89;102261.95;1615080;88;26515;-75
2022/03/14 10:01:41;;;;;;;44.23;26.30;;;;;;;5.82;59.79;102259.68;1615299;88;26145;-74
2022/03/14 10:04:08;;;;;;;45.75;27.65;;;;;;;5.88;59.49;102250.80;1651733;85;25668;-74
2022/03/14 10:06:39;;;;;;;42.83;25.68;;;;;;;5.95;58.64;102250.70;1631635;87;28287;-75
2022/03/14 10:09:06;;;;;;;44.03;26.33;;;;;;;6.02;58.79;102255.08;1618203;87;25810;-76
2022/03/14 10:11:33;;;;;;;47.03;26.90;;;;;;;6.10;58.92;102251.34;1630965;87;25845;-76
2022/03/14 10:13:59;;;;;;;42.83;26.15;;;;;;;6.21;59.02;102261.53;1623816;87;25765;-75
2022/03/14 10:16:26;;;;;;;39.85;26.15;;;;;;;6.29;58.81;102262.25;1632157;87;26613;-78
2022/03/14 10:18:58;;;;;;;38.78;24.95;;;;;;;6.38;58.22;102254.89;1629862;87;27484;-76
2022/03/14 10:21:35;;;;;;;42.98;25.75;;;;;;;6.43;58.04;102259.39;1650380;85;25756;-78
2022/03/14 10:24:06;;;;;;;37.40;23.70;;;;;;;6.48;57.68;102255.03;1639268;86;26552;-76
2022/03/14 10:26:34;;;;;;;40.35;25.10;;;;;;;6.54;58.03;102254.08;1641115;86;25885;-77
2022/03/14 10:29:12;;;;;;;39.85;25.12;;;;;;;6.63;57.95;102255.16;1637926;87;25829;-77
2022/03/14 10:31:40;;;;;;;41.88;25.72;;;;;;;6.72;57.51;102264.59;1639930;87;27660;-78
2022/03/14 10:34:13;;;;;;;42.53;24.23;;;;;;;6.80;57.46;102260.00;1625162;87;26543;-76
2022/03/14 10:36:51;;;;;;;37.88;24.12;;;;;;;6.88;57.24;102254.42;1644889;85;26423;-77
2022/03/14 10:39:25;;;;;;;38.83;24.27;;;;;;;6.97;57.45;102255.00;1650987;85;25846;-76
2022/03/14 10:42:12;;;;;;;41.08;25.75;;;;;;;7.05;56.76;102253.54;1641278;87;26503;-76
2022/03/14 10:44:41;;;;;;;39.23;23.73;;;;;;;7.10;56.77;102250.85;1649959;86;27503;-76
2022/03/14 10:47:11;;;;;;;41.48;25.17;;;;;;;7.19;56.27;102248.78;1638068;87;25962;-77
2022/03/14 10:49:39;;;;;;;40.92;25.02;;;;;;;7.26;56.35;102249.12;1628753;87;25811;-76
2022/03/14 10:52:13;;;;;;;39.63;23.18;;;;;;;7.36;55.88;102238.06;1630300;87;26574;-77
2022/03/14 10:54:42;;;;;;;42.58;26.07;;;;;;;7.47;56.01;102238.03;1647501;86;25969;-76
2022/03/14 10:57:15;;;;;;;42.23;24.37;;;;;;;7.52;55.18;102238.03;1644586;85;28505;-78
2022/03/14 10:59:48;;;;;;;52.85;30.25;;;;;;;7.59;54.55;102245.86;1646915;86;25371;-75
2022/03/14 11:02:20;;;;;;;46.75;27.02;;;;;;;7.73;56.14;102240.23;1650531;86;25868;-75
2022/03/14 11:04:52;;;;;;;41.65;25.40;;;;;;;7.89;55.80;102234.44;1650237;85;26603;-78
2022/03/14 11:07:22;;;;;;;42.00;24.40;;;;;;;7.99;55.90;102233.18;1651904;86;25789;-77
2022/03/14 11:09:51;;;;;;;51.85;27.87;;;;;;;8.09;54.82;102227.41;1652670;86;27479;-76
2022/03/14 11:12:22;;;;;;;48.05;29.37;;;;;;;8.16;54.49;102228.59;1650588;86;25753;-77
2022/03/14 11:15:07;;;;;;;41.80;26.27;;;;;;;8.21;54.06;102223.20;1651638;86;26646;-76
2022/03/14 11:17:35;;;;;;;38.25;22.05;;;;;;;8.27;53.94;102219.20;1651942;86;26628;-75